Archival Weather

Chicago O'Hare International

Chicago, Illinois (KORD)

Report from: Tuesday, October 31, 2023 2:26 PM CDT
Current time: Tuesday, June 18, 2024 6:49 AM CDT

Current weather – Weather history – Daily summaries
Weather forecast

Present weatherSnow, fog
Temperature0.6°C (33.1°F)
Wind chill-3.6°C (25.5°F)
Dew point-2.8°C (27.0°F)
Winds 8 kts (4.1 m/s, 9.2 mph) West (270°)
Visibility2640 ft. (804.7 m)
Clouds Scattered clouds 500 ft. (152 m)
Ceiling: Broken clouds 1,300 ft. (396 m)
Overcast 2,500 ft. (762 m)
Altimeter30.04 in.Hg (1017 mB)
Precipitiation0.01 in. (0 mm)
Relative humidity78 %
Density altitude-1,817 ft. (-554 m)
Remarks Automated weather observing station with precipitation discriminator
Flight conditions Low Instrument Meteorological Conditions
Raw dataKORD 311926Z 27008KT 1/2SM R10L/2000V6000FT SN FG SCT005 BKN013 OVC025 01/M03 A3004 RMK AO2 P0001 T00061028
An error has occurred. This application may no longer respond until reloaded. Reload 🗙